sensor_id;sensor_type;location;lat;lon;timestamp;temperature;humidity
43808;DHT22;29438;50.664;10.098;2022-07-17T00:01:32;9.40;76.30
43808;DHT22;29438;50.664;10.098;2022-07-17T00:03:57;9.30;76.60
43808;DHT22;29438;50.664;10.098;2022-07-17T00:06:23;9.20;77.00
43808;DHT22;29438;50.664;10.098;2022-07-17T00:08:48;9.20;77.40
43808;DHT22;29438;50.664;10.098;2022-07-17T00:11:14;9.20;77.40
43808;DHT22;29438;50.664;10.098;2022-07-17T00:13:39;9.20;77.50
43808;DHT22;29438;50.664;10.098;2022-07-17T00:16:05;9.20;77.70
43808;DHT22;29438;50.664;10.098;2022-07-17T00:18:31;9.10;77.70
43808;DHT22;29438;50.664;10.098;2022-07-17T00:20:56;9.10;77.90
43808;DHT22;29438;50.664;10.098;2022-07-17T00:23:22;9.10;77.90
43808;DHT22;29438;50.664;10.098;2022-07-17T00:25:47;9.10;77.90
43808;DHT22;29438;50.664;10.098;2022-07-17T00:28:13;9.10;78.00
43808;DHT22;29438;50.664;10.098;2022-07-17T00:30:39;9.10;78.20
43808;DHT22;29438;50.664;10.098;2022-07-17T00:33:04;9.10;77.90
43808;DHT22;29438;50.664;10.098;2022-07-17T00:35:30;9.00;78.00
43808;DHT22;29438;50.664;10.098;2022-07-17T00:37:55;9.00;77.90
43808;DHT22;29438;50.664;10.098;2022-07-17T00:40:23;9.00;78.00
43808;DHT22;29438;50.664;10.098;2022-07-17T00:42:49;8.90;78.00
43808;DHT22;29438;50.664;10.098;2022-07-17T00:45:16;8.90;77.90
43808;DHT22;29438;50.664;10.098;2022-07-17T00:47:53;8.90;77.80
43808;DHT22;29438;50.664;10.098;2022-07-17T00:50:21;8.70;78.10
43808;DHT22;29438;50.664;10.098;2022-07-17T00:52:47;8.70;78.80
43808;DHT22;29438;50.664;10.098;2022-07-17T00:55:13;8.70;79.10
43808;DHT22;29438;50.664;10.098;2022-07-17T00:57:40;8.80;79.40
43808;DHT22;29438;50.664;10.098;2022-07-17T01:00:06;8.70;79.30
43808;DHT22;29438;50.664;10.098;2022-07-17T01:02:35;8.70;79.40
43808;DHT22;29438;50.664;10.098;2022-07-17T01:05:01;8.60;79.30
43808;DHT22;29438;50.664;10.098;2022-07-17T01:07:26;8.60;79.50
43808;DHT22;29438;50.664;10.098;2022-07-17T01:09:52;8.50;79.50
43808;DHT22;29438;50.664;10.098;2022-07-17T01:12:18;8.50;79.90
43808;DHT22;29438;50.664;10.098;2022-07-17T01:14:43;8.50;80.20
43808;DHT22;29438;50.664;10.098;2022-07-17T01:17:10;8.50;80.10
43808;DHT22;29438;50.664;10.098;2022-07-17T01:19:36;8.60;80.30
43808;DHT22;29438;50.664;10.098;2022-07-17T01:22:02;8.60;80.20
43808;DHT22;29438;50.664;10.098;2022-07-17T01:24:27;8.60;80.20
43808;DHT22;29438;50.664;10.098;2022-07-17T01:26:53;8.50;80.10
43808;DHT22;29438;50.664;10.098;2022-07-17T01:29:18;8.50;80.30
43808;DHT22;29438;50.664;10.098;2022-07-17T01:31:44;8.40;80.40
43808;DHT22;29438;50.664;10.098;2022-07-17T01:34:11;8.40;80.60
43808;DHT22;29438;50.664;10.098;2022-07-17T01:36:38;8.30;80.80
43808;DHT22;29438;50.664;10.098;2022-07-17T01:39:04;8.30;81.00
43808;DHT22;29438;50.664;10.098;2022-07-17T01:41:30;8.30;81.10
43808;DHT22;29438;50.664;10.098;2022-07-17T01:43:56;8.30;81.00
43808;DHT22;29438;50.664;10.098;2022-07-17T01:46:22;8.30;80.90
43808;DHT22;29438;50.664;10.098;2022-07-17T01:48:47;8.30;80.90
43808;DHT22;29438;50.664;10.098;2022-07-17T01:51:13;8.30;81.00
43808;DHT22;29438;50.664;10.098;2022-07-17T01:53:39;8.30;81.20
43808;DHT22;29438;50.664;10.098;2022-07-17T01:56:04;8.20;81.30
43808;DHT22;29438;50.664;10.098;2022-07-17T01:58:30;8.20;81.40
43808;DHT22;29438;50.664;10.098;2022-07-17T02:00:56;8.20;81.50
43808;DHT22;29438;50.664;10.098;2022-07-17T02:03:22;8.20;81.70
43808;DHT22;29438;50.664;10.098;2022-07-17T02:05:47;8.30;81.90
43808;DHT22;29438;50.664;10.098;2022-07-17T02:08:13;8.20;81.40
43808;DHT22;29438;50.664;10.098;2022-07-17T02:10:38;8.20;81.70
43808;DHT22;29438;50.664;10.098;2022-07-17T02:13:04;8.20;81.80
43808;DHT22;29438;50.664;10.098;2022-07-17T02:15:30;8.10;81.90
43808;DHT22;29438;50.664;10.098;2022-07-17T02:17:55;8.10;82.00
43808;DHT22;29438;50.664;10.098;2022-07-17T02:20:21;8.10;82.10
43808;DHT22;29438;50.664;10.098;2022-07-17T02:22:47;8.10;82.10
43808;DHT22;29438;50.664;10.098;2022-07-17T02:25:13;8.10;82.30
43808;DHT22;29438;50.664;10.098;2022-07-17T02:27:39;8.10;82.20
43808;DHT22;29438;50.664;10.098;2022-07-17T02:30:08;8.20;82.20
43808;DHT22;29438;50.664;10.098;2022-07-17T02:32:34;8.20;82.30
43808;DHT22;29438;50.664;10.098;2022-07-17T02:34:59;8.20;82.20
43808;DHT22;29438;50.664;10.098;2022-07-17T02:37:25;8.10;82.30
43808;DHT22;29438;50.664;10.098;2022-07-17T02:39:51;8.10;82.40
43808;DHT22;29438;50.664;10.098;2022-07-17T02:42:23;8.00;82.50
43808;DHT22;29438;50.664;10.098;2022-07-17T02:44:50;8.00;82.70
43808;DHT22;29438;50.664;10.098;2022-07-17T02:47:26;7.90;82.80
43808;DHT22;29438;50.664;10.098;2022-07-17T02:49:52;7.90;82.80
43808;DHT22;29438;50.664;10.098;2022-07-17T02:52:19;7.90;83.00
43808;DHT22;29438;50.664;10.098;2022-07-17T02:54:45;7.90;83.10
43808;DHT22;29438;50.664;10.098;2022-07-17T02:57:11;7.80;83.10
43808;DHT22;29438;50.664;10.098;2022-07-17T02:59:37;7.80;83.20
43808;DHT22;29438;50.664;10.098;2022-07-17T03:02:03;7.70;83.30
43808;DHT22;29438;50.664;10.098;2022-07-17T03:04:29;7.70;83.30
43808;DHT22;29438;50.664;10.098;2022-07-17T03:06:54;7.70;83.50
43808;DHT22;29438;50.664;10.098;2022-07-17T03:09:20;7.70;83.50
43808;DHT22;29438;50.664;10.098;2022-07-17T03:11:46;7.70;83.50
43808;DHT22;29438;50.664;10.098;2022-07-17T03:14:11;7.70;83.50
43808;DHT22;29438;50.664;10.098;2022-07-17T03:16:37;7.70;83.60
43808;DHT22;29438;50.664;10.098;2022-07-17T03:19:02;7.80;83.90
43808;DHT22;29438;50.664;10.098;2022-07-17T03:21:28;7.70;84.00
43808;DHT22;29438;50.664;10.098;2022-07-17T03:23:53;7.70;84.00
43808;DHT22;29438;50.664;10.098;2022-07-17T03:26:19;7.60;84.00
43808;DHT22;29438;50.664;10.098;2022-07-17T03:28:44;7.60;84.10
43808;DHT22;29438;50.664;10.098;2022-07-17T03:31:10;7.60;84.20
43808;DHT22;29438;50.664;10.098;2022-07-17T03:33:35;7.50;84.20
43808;DHT22;29438;50.664;10.098;2022-07-17T03:36:01;7.50;84.10
43808;DHT22;29438;50.664;10.098;2022-07-17T03:38:27;7.50;84.00
43808;DHT22;29438;50.664;10.098;2022-07-17T03:40:52;7.50;84.10
43808;DHT22;29438;50.664;10.098;2022-07-17T03:43:17;7.70;84.20
43808;DHT22;29438;50.664;10.098;2022-07-17T03:45:43;7.70;84.00
43808;DHT22;29438;50.664;10.098;2022-07-17T03:48:09;7.70;83.90
43808;DHT22;29438;50.664;10.098;2022-07-17T03:50:34;7.80;83.90
43808;DHT22;29438;50.664;10.098;2022-07-17T03:53:00;7.90;83.50
43808;DHT22;29438;50.664;10.098;2022-07-17T03:55:25;8.10;83.00
43808;DHT22;29438;50.664;10.098;2022-07-17T03:57:51;8.20;82.50
43808;DHT22;29438;50.664;10.098;2022-07-17T04:00:17;8.20;82.30
43808;DHT22;29438;50.664;10.098;2022-07-17T04:02:42;8.30;82.30
43808;DHT22;29438;50.664;10.098;2022-07-17T04:05:08;8.30;81.90
43808;DHT22;29438;50.664;10.098;2022-07-17T04:07:39;8.50;82.00
43808;DHT22;29438;50.664;10.098;2022-07-17T04:10:05;8.70;81.70
43808;DHT22;29438;50.664;10.098;2022-07-17T04:12:31;8.80;81.40
43808;DHT22;29438;50.664;10.098;2022-07-17T04:14:57;9.00;81.00
43808;DHT22;29438;50.664;10.098;2022-07-17T04:17:23;9.20;80.30
43808;DHT22;29438;50.664;10.098;2022-07-17T04:19:48;9.40;79.80
43808;DHT22;29438;50.664;10.098;2022-07-17T04:22:15;9.60;79.40
43808;DHT22;29438;50.664;10.098;2022-07-17T04:24:40;9.70;78.60
43808;DHT22;29438;50.664;10.098;2022-07-17T04:27:06;9.90;78.10
43808;DHT22;29438;50.664;10.098;2022-07-17T04:29:32;10.20;77.20
43808;DHT22;29438;50.664;10.098;2022-07-17T04:31:57;11.60;74.80
43808;DHT22;29438;50.664;10.098;2022-07-17T04:34:23;13.90;68.00
43808;DHT22;29438;50.664;10.098;2022-07-17T04:36:49;16.70;60.30
43808;DHT22;29438;50.664;10.098;2022-07-17T04:39:14;20.00;49.60
43808;DHT22;29438;50.664;10.098;2022-07-17T04:41:40;22.70;42.20
43808;DHT22;29438;50.664;10.098;2022-07-17T04:44:05;24.80;37.40
43808;DHT22;29438;50.664;10.098;2022-07-17T04:46:30;25.60;36.50
43808;DHT22;29438;50.664;10.098;2022-07-17T04:48:56;26.80;33.90
43808;DHT22;29438;50.664;10.098;2022-07-17T04:51:21;27.60;32.80
43808;DHT22;29438;50.664;10.098;2022-07-17T04:53:49;29.00;31.00
43808;DHT22;29438;50.664;10.098;2022-07-17T04:56:15;29.90;29.50
43808;DHT22;29438;50.664;10.098;2022-07-17T04:58:41;30.40;28.30
43808;DHT22;29438;50.664;10.098;2022-07-17T05:01:06;30.40;28.50
43808;DHT22;29438;50.664;10.098;2022-07-17T05:03:32;29.20;29.10
43808;DHT22;29438;50.664;10.098;2022-07-17T05:05:57;27.90;31.10
43808;DHT22;29438;50.664;10.098;2022-07-17T05:08:23;28.50;30.30
43808;DHT22;29438;50.664;10.098;2022-07-17T05:10:48;28.10;31.00
43808;DHT22;29438;50.664;10.098;2022-07-17T05:13:14;28.70;30.60
43808;DHT22;29438;50.664;10.098;2022-07-17T05:15:39;28.40;29.90
43808;DHT22;29438;50.664;10.098;2022-07-17T05:18:05;29.60;28.80
43808;DHT22;29438;50.664;10.098;2022-07-17T05:20:31;30.30;27.90
43808;DHT22;29438;50.664;10.098;2022-07-17T05:22:56;31.50;26.50
43808;DHT22;29438;50.664;10.098;2022-07-17T05:25:22;30.30;27.00
43808;DHT22;29438;50.664;10.098;2022-07-17T05:27:48;31.10;26.30
43808;DHT22;29438;50.664;10.098;2022-07-17T05:30:13;31.30;26.10
43808;DHT22;29438;50.664;10.098;2022-07-17T05:32:39;31.10;26.50
43808;DHT22;29438;50.664;10.098;2022-07-17T05:35:05;31.70;26.30
43808;DHT22;29438;50.664;10.098;2022-07-17T05:37:30;32.90;25.00
43808;DHT22;29438;50.664;10.098;2022-07-17T05:39:56;33.00;24.50
43808;DHT22;29438;50.664;10.098;2022-07-17T05:42:22;32.20;24.50
43808;DHT22;29438;50.664;10.098;2022-07-17T05:44:47;32.30;25.00
43808;DHT22;29438;50.664;10.098;2022-07-17T05:47:13;31.90;25.70
43808;DHT22;29438;50.664;10.098;2022-07-17T05:49:38;31.70;26.10
43808;DHT22;29438;50.664;10.098;2022-07-17T05:52:04;31.40;26.20
43808;DHT22;29438;50.664;10.098;2022-07-17T05:54:30;31.70;26.20
43808;DHT22;29438;50.664;10.098;2022-07-17T05:56:58;31.90;25.70
43808;DHT22;29438;50.664;10.098;2022-07-17T05:59:23;32.80;24.60
43808;DHT22;29438;50.664;10.098;2022-07-17T06:01:49;33.80;23.40
43808;DHT22;29438;50.664;10.098;2022-07-17T06:04:14;31.40;25.20
43808;DHT22;29438;50.664;10.098;2022-07-17T06:06:40;31.00;26.60
43808;DHT22;29438;50.664;10.098;2022-07-17T06:09:05;30.60;26.60
43808;DHT22;29438;50.664;10.098;2022-07-17T06:11:31;31.20;26.10
43808;DHT22;29438;50.664;10.098;2022-07-17T06:13:56;30.40;27.20
43808;DHT22;29438;50.664;10.098;2022-07-17T06:16:22;28.60;29.20
43808;DHT22;29438;50.664;10.098;2022-07-17T06:18:47;29.80;27.90
43808;DHT22;29438;50.664;10.098;2022-07-17T06:21:13;30.40;28.20
43808;DHT22;29438;50.664;10.098;2022-07-17T06:23:38;32.20;25.60
43808;DHT22;29438;50.664;10.098;2022-07-17T06:26:04;31.90;26.10
43808;DHT22;29438;50.664;10.098;2022-07-17T06:28:30;31.60;26.40
43808;DHT22;29438;50.664;10.098;2022-07-17T06:30:56;32.30;26.10
43808;DHT22;29438;50.664;10.098;2022-07-17T06:33:21;31.40;26.30
43808;DHT22;29438;50.664;10.098;2022-07-17T06:35:47;30.50;27.90
43808;DHT22;29438;50.664;10.098;2022-07-17T06:38:12;29.70;27.90
43808;DHT22;29438;50.664;10.098;2022-07-17T06:40:38;30.20;28.90
43808;DHT22;29438;50.664;10.098;2022-07-17T06:43:05;29.20;29.10
43808;DHT22;29438;50.664;10.098;2022-07-17T06:45:31;27.70;31.50
43808;DHT22;29438;50.664;10.098;2022-07-17T06:47:57;27.70;30.10
43808;DHT22;29438;50.664;10.098;2022-07-17T06:50:22;28.20;30.40
43808;DHT22;29438;50.664;10.098;2022-07-17T06:52:48;27.10;32.40
43808;DHT22;29438;50.664;10.098;2022-07-17T06:55:14;27.90;31.10
43808;DHT22;29438;50.664;10.098;2022-07-17T06:57:39;28.10;30.50
43808;DHT22;29438;50.664;10.098;2022-07-17T07:00:05;27.30;32.20
43808;DHT22;29438;50.664;10.098;2022-07-17T07:02:31;25.90;35.30
43808;DHT22;29438;50.664;10.098;2022-07-17T07:04:56;24.80;36.00
43808;DHT22;29438;50.664;10.098;2022-07-17T07:07:22;23.60;37.90
43808;DHT22;29438;50.664;10.098;2022-07-17T07:09:47;22.90;39.10
43808;DHT22;29438;50.664;10.098;2022-07-17T07:12:13;22.90;38.90
43808;DHT22;29438;50.664;10.098;2022-07-17T07:14:38;22.90;39.90
43808;DHT22;29438;50.664;10.098;2022-07-17T07:17:04;22.40;41.60
43808;DHT22;29438;50.664;10.098;2022-07-17T07:19:30;21.70;42.50
43808;DHT22;29438;50.664;10.098;2022-07-17T07:21:56;21.40;40.70
43808;DHT22;29438;50.664;10.098;2022-07-17T07:24:22;21.70;41.90
43808;DHT22;29438;50.664;10.098;2022-07-17T07:26:48;21.40;41.70
43808;DHT22;29438;50.664;10.098;2022-07-17T07:29:13;21.20;42.60
43808;DHT22;29438;50.664;10.098;2022-07-17T07:31:38;21.80;41.30
43808;DHT22;29438;50.664;10.098;2022-07-17T07:34:04;22.30;40.80
43808;DHT22;29438;50.664;10.098;2022-07-17T07:36:30;22.70;39.00
43808;DHT22;29438;50.664;10.098;2022-07-17T07:38:55;22.30;39.60
43808;DHT22;29438;50.664;10.098;2022-07-17T07:41:21;21.90;40.20
43808;DHT22;29438;50.664;10.098;2022-07-17T07:43:46;22.10;39.90
43808;DHT22;29438;50.664;10.098;2022-07-17T07:46:12;21.70;41.90
43808;DHT22;29438;50.664;10.098;2022-07-17T07:48:37;21.30;41.70
43808;DHT22;29438;50.664;10.098;2022-07-17T07:51:03;21.50;40.50
43808;DHT22;29438;50.664;10.098;2022-07-17T07:53:29;22.00;40.40
43808;DHT22;29438;50.664;10.098;2022-07-17T07:55:54;21.90;40.40
43808;DHT22;29438;50.664;10.098;2022-07-17T07:58:20;22.10;40.90
43808;DHT22;29438;50.664;10.098;2022-07-17T08:00:45;22.40;40.10
43808;DHT22;29438;50.664;10.098;2022-07-17T08:03:11;21.90;39.70
43808;DHT22;29438;50.664;10.098;2022-07-17T08:05:37;21.90;40.20
43808;DHT22;29438;50.664;10.098;2022-07-17T08:08:03;21.90;40.30
43808;DHT22;29438;50.664;10.098;2022-07-17T08:10:29;21.90;39.80
43808;DHT22;29438;50.664;10.098;2022-07-17T08:12:54;22.30;39.90
43808;DHT22;29438;50.664;10.098;2022-07-17T08:15:21;23.80;36.90
43808;DHT22;29438;50.664;10.098;2022-07-17T08:17:48;24.70;35.20
43808;DHT22;29438;50.664;10.098;2022-07-17T08:20:15;24.10;36.10
43808;DHT22;29438;50.664;10.098;2022-07-17T08:22:41;23.50;36.90
43808;DHT22;29438;50.664;10.098;2022-07-17T08:25:08;25.30;34.40
43808;DHT22;29438;50.664;10.098;2022-07-17T08:27:37;26.70;30.10
43808;DHT22;29438;50.664;10.098;2022-07-17T08:30:04;26.30;31.60
43808;DHT22;29438;50.664;10.098;2022-07-17T08:32:30;26.60;31.20
43808;DHT22;29438;50.664;10.098;2022-07-17T08:34:56;26.40;30.90
43808;DHT22;29438;50.664;10.098;2022-07-17T08:37:22;27.20;31.00
43808;DHT22;29438;50.664;10.098;2022-07-17T08:39:47;28.20;29.40
43808;DHT22;29438;50.664;10.098;2022-07-17T08:42:13;29.00;29.40
43808;DHT22;29438;50.664;10.098;2022-07-17T08:44:42;28.30;28.30
43808;DHT22;29438;50.664;10.098;2022-07-17T08:47:09;26.10;32.00
43808;DHT22;29438;50.664;10.098;2022-07-17T08:49:36;25.50;32.80
43808;DHT22;29438;50.664;10.098;2022-07-17T08:52:05;26.20;31.20
43808;DHT22;29438;50.664;10.098;2022-07-17T08:54:30;26.70;31.80
43808;DHT22;29438;50.664;10.098;2022-07-17T08:56:57;26.30;31.70
43808;DHT22;29438;50.664;10.098;2022-07-17T08:59:22;26.00;32.10
43808;DHT22;29438;50.664;10.098;2022-07-17T09:01:48;24.90;33.70
43808;DHT22;29438;50.664;10.098;2022-07-17T09:04:14;25.20;33.20
43808;DHT22;29438;50.664;10.098;2022-07-17T09:06:39;26.20;32.70
43808;DHT22;29438;50.664;10.098;2022-07-17T09:09:10;25.70;32.50
43808;DHT22;29438;50.664;10.098;2022-07-17T09:11:48;25.60;32.40
43808;DHT22;29438;50.664;10.098;2022-07-17T09:14:16;26.40;32.50
43808;DHT22;29438;50.664;10.098;2022-07-17T09:22:22;27.70;30.50
43808;DHT22;29438;50.664;10.098;2022-07-17T09:24:54;28.80;28.80
43808;DHT22;29438;50.664;10.098;2022-07-17T09:29:57;28.40;29.00
43808;DHT22;29438;50.664;10.098;2022-07-17T09:32:26;28.70;28.80
43808;DHT22;29438;50.664;10.098;2022-07-17T09:34:53;28.00;29.30
43808;DHT22;29438;50.664;10.098;2022-07-17T09:37:22;27.00;31.30
43808;DHT22;29438;50.664;10.098;2022-07-17T09:39:48;25.80;33.60
43808;DHT22;29438;50.664;10.098;2022-07-17T09:42:28;24.90;33.30
43808;DHT22;29438;50.664;10.098;2022-07-17T09:45:02;24.00;33.80
43808;DHT22;29438;50.664;10.098;2022-07-17T09:47:29;23.90;34.40
43808;DHT22;29438;50.664;10.098;2022-07-17T09:49:57;24.20;33.70
43808;DHT22;29438;50.664;10.098;2022-07-17T09:52:24;23.70;34.60
43808;DHT22;29438;50.664;10.098;2022-07-17T09:54:52;24.70;35.10
43808;DHT22;29438;50.664;10.098;2022-07-17T09:57:20;25.50;32.00
43808;DHT22;29438;50.664;10.098;2022-07-17T09:59:48;25.60;32.80
43808;DHT22;29438;50.664;10.098;2022-07-17T10:02:14;26.70;32.00
43808;DHT22;29438;50.664;10.098;2022-07-17T10:04:41;27.10;31.00
43808;DHT22;29438;50.664;10.098;2022-07-17T10:07:06;26.40;31.00
43808;DHT22;29438;50.664;10.098;2022-07-17T10:09:34;25.60;31.90
43808;DHT22;29438;50.664;10.098;2022-07-17T10:12:00;25.70;32.00
43808;DHT22;29438;50.664;10.098;2022-07-17T10:14:26;25.70;33.30
43808;DHT22;29438;50.664;10.098;2022-07-17T10:16:52;25.10;31.90
43808;DHT22;29438;50.664;10.098;2022-07-17T10:19:19;24.70;33.80
43808;DHT22;29438;50.664;10.098;2022-07-17T10:22:04;24.30;33.40
43808;DHT22;29438;50.664;10.098;2022-07-17T10:24:31;23.80;36.10
43808;DHT22;29438;50.664;10.098;2022-07-17T10:26:58;24.40;34.90
43808;DHT22;29438;50.664;10.098;2022-07-17T10:29:35;25.90;32.50
43808;DHT22;29438;50.664;10.098;2022-07-17T10:32:14;26.90;30.60
43808;DHT22;29438;50.664;10.098;2022-07-17T10:34:48;26.80;29.60
43808;DHT22;29438;50.664;10.098;2022-07-17T10:37:15;25.70;30.60
43808;DHT22;29438;50.664;10.098;2022-07-17T10:39:52;24.80;31.40
43808;DHT22;29438;50.664;10.098;2022-07-17T10:42:37;24.20;32.00
43808;DHT22;29438;50.664;10.098;2022-07-17T10:45:08;25.20;33.00
43808;DHT22;29438;50.664;10.098;2022-07-17T10:50:15;26.20;30.50
43808;DHT22;29438;50.664;10.098;2022-07-17T10:52:41;26.70;28.70
43808;DHT22;29438;50.664;10.098;2022-07-17T10:55:18;26.60;28.30
43808;DHT22;29438;50.664;10.098;2022-07-17T10:57:45;26.20;30.00
43808;DHT22;29438;50.664;10.098;2022-07-17T11:00:12;26.10;29.70
43808;DHT22;29438;50.664;10.098;2022-07-17T11:02:38;26.70;31.50
43808;DHT22;29438;50.664;10.098;2022-07-17T11:05:11;27.20;29.50
43808;DHT22;29438;50.664;10.098;2022-07-17T11:07:48;27.00;29.70
43808;DHT22;29438;50.664;10.098;2022-07-17T11:10:14;27.80;28.90
43808;DHT22;29438;50.664;10.098;2022-07-17T11:12:40;28.20;28.60
43808;DHT22;29438;50.664;10.098;2022-07-17T11:15:06;28.00;27.40
43808;DHT22;29438;50.664;10.098;2022-07-17T11:17:32;28.30;29.60
43808;DHT22;29438;50.664;10.098;2022-07-17T11:19:58;28.10;26.50
43808;DHT22;29438;50.664;10.098;2022-07-17T11:22:24;28.00;27.40
43808;DHT22;29438;50.664;10.098;2022-07-17T11:24:51;27.00;27.80
43808;DHT22;29438;50.664;10.098;2022-07-17T11:27:29;26.60;28.80
43808;DHT22;29438;50.664;10.098;2022-07-17T11:29:57;25.70;29.60
43808;DHT22;29438;50.664;10.098;2022-07-17T11:32:24;25.70;29.90
43808;DHT22;29438;50.664;10.098;2022-07-17T11:34:50;26.40;28.90
43808;DHT22;29438;50.664;10.098;2022-07-17T11:37:16;25.90;29.10
43808;DHT22;29438;50.664;10.098;2022-07-17T11:39:49;25.00;29.80
43808;DHT22;29438;50.664;10.098;2022-07-17T11:42:17;24.60;30.00
43808;DHT22;29438;50.664;10.098;2022-07-17T11:44:44;24.50;30.10
43808;DHT22;29438;50.664;10.098;2022-07-17T11:47:11;25.00;30.20
43808;DHT22;29438;50.664;10.098;2022-07-17T11:49:38;25.00;30.80
43808;DHT22;29438;50.664;10.098;2022-07-17T11:52:12;25.70;30.40
43808;DHT22;29438;50.664;10.098;2022-07-17T11:54:49;26.00;29.00
43808;DHT22;29438;50.664;10.098;2022-07-17T11:57:16;25.80;28.70
43808;DHT22;29438;50.664;10.098;2022-07-17T11:59:42;26.20;29.70
43808;DHT22;29438;50.664;10.098;2022-07-17T12:02:13;26.20;29.60
43808;DHT22;29438;50.664;10.098;2022-07-17T12:04:54;26.40;28.80
43808;DHT22;29438;50.664;10.098;2022-07-17T12:07:21;26.60;27.70
43808;DHT22;29438;50.664;10.098;2022-07-17T12:09:47;26.80;28.50
43808;DHT22;29438;50.664;10.098;2022-07-17T12:12:26;27.10;27.10
43808;DHT22;29438;50.664;10.098;2022-07-17T12:14:58;27.00;27.80
43808;DHT22;29438;50.664;10.098;2022-07-17T12:17:26;26.00;28.80
43808;DHT22;29438;50.664;10.098;2022-07-17T12:20:06;25.70;27.50
43808;DHT22;29438;50.664;10.098;2022-07-17T12:22:46;25.00;29.30
43808;DHT22;29438;50.664;10.098;2022-07-17T12:25:30;25.20;28.50
43808;DHT22;29438;50.664;10.098;2022-07-17T12:27:55;25.60;28.70
43808;DHT22;29438;50.664;10.098;2022-07-17T12:30:21;26.10;28.40
43808;DHT22;29438;50.664;10.098;2022-07-17T12:32:47;25.90;26.60
43808;DHT22;29438;50.664;10.098;2022-07-17T12:35:15;25.60;28.10
43808;DHT22;29438;50.664;10.098;2022-07-17T12:37:41;25.10;27.50
43808;DHT22;29438;50.664;10.098;2022-07-17T12:40:08;25.30;26.60
43808;DHT22;29438;50.664;10.098;2022-07-17T12:42:33;25.10;26.50
43808;DHT22;29438;50.664;10.098;2022-07-17T12:44:59;25.20;26.50
43808;DHT22;29438;50.664;10.098;2022-07-17T12:47:25;25.10;26.80
43808;DHT22;29438;50.664;10.098;2022-07-17T12:49:50;25.20;27.00
43808;DHT22;29438;50.664;10.098;2022-07-17T12:52:15;25.40;26.50
43808;DHT22;29438;50.664;10.098;2022-07-17T12:54:41;25.90;28.10
43808;DHT22;29438;50.664;10.098;2022-07-17T12:57:07;26.60;27.60
43808;DHT22;29438;50.664;10.098;2022-07-17T12:59:32;26.70;25.30
43808;DHT22;29438;50.664;10.098;2022-07-17T13:01:58;26.40;25.40
43808;DHT22;29438;50.664;10.098;2022-07-17T13:04:24;26.30;26.10
43808;DHT22;29438;50.664;10.098;2022-07-17T13:06:49;26.20;25.40
43808;DHT22;29438;50.664;10.098;2022-07-17T13:09:15;25.90;25.70
43808;DHT22;29438;50.664;10.098;2022-07-17T13:11:41;26.40;25.20
43808;DHT22;29438;50.664;10.098;2022-07-17T13:14:07;26.40;25.20
43808;DHT22;29438;50.664;10.098;2022-07-17T13:16:40;26.60;25.30
43808;DHT22;29438;50.664;10.098;2022-07-17T13:19:06;25.50;24.90
43808;DHT22;29438;50.664;10.098;2022-07-17T13:21:32;25.10;25.60
43808;DHT22;29438;50.664;10.098;2022-07-17T13:23:57;25.40;27.20
43808;DHT22;29438;50.664;10.098;2022-07-17T13:26:23;26.20;27.90
43808;DHT22;29438;50.664;10.098;2022-07-17T13:28:49;26.70;26.00
43808;DHT22;29438;50.664;10.098;2022-07-17T13:31:14;27.20;26.40
43808;DHT22;29438;50.664;10.098;2022-07-17T13:33:40;27.50;25.70
43808;DHT22;29438;50.664;10.098;2022-07-17T13:36:06;27.30;25.00
43808;DHT22;29438;50.664;10.098;2022-07-17T13:38:31;27.20;24.80
43808;DHT22;29438;50.664;10.098;2022-07-17T13:40:57;27.00;24.40
43808;DHT22;29438;50.664;10.098;2022-07-17T13:43:23;26.60;25.00
43808;DHT22;29438;50.664;10.098;2022-07-17T13:45:48;25.90;24.60
43808;DHT22;29438;50.664;10.098;2022-07-17T13:48:14;25.20;24.40
43808;DHT22;29438;50.664;10.098;2022-07-17T13:50:41;25.10;24.60
43808;DHT22;29438;50.664;10.098;2022-07-17T13:53:07;25.20;24.90
43808;DHT22;29438;50.664;10.098;2022-07-17T13:55:33;25.40;25.00
43808;DHT22;29438;50.664;10.098;2022-07-17T13:57:58;25.90;26.00
43808;DHT22;29438;50.664;10.098;2022-07-17T14:00:24;26.20;25.90
43808;DHT22;29438;50.664;10.098;2022-07-17T14:02:50;26.50;25.20
43808;DHT22;29438;50.664;10.098;2022-07-17T14:05:15;26.30;27.00
43808;DHT22;29438;50.664;10.098;2022-07-17T14:07:42;26.50;25.60
43808;DHT22;29438;50.664;10.098;2022-07-17T14:10:08;26.60;26.00
43808;DHT22;29438;50.664;10.098;2022-07-17T14:12:35;26.60;24.90
43808;DHT22;29438;50.664;10.098;2022-07-17T14:15:01;26.50;24.70
43808;DHT22;29438;50.664;10.098;2022-07-17T14:17:26;26.50;26.90
43808;DHT22;29438;50.664;10.098;2022-07-17T14:19:52;26.70;25.50
43808;DHT22;29438;50.664;10.098;2022-07-17T14:22:17;26.70;24.80
43808;DHT22;29438;50.664;10.098;2022-07-17T14:24:43;26.60;25.60
43808;DHT22;29438;50.664;10.098;2022-07-17T14:27:08;26.20;24.70
43808;DHT22;29438;50.664;10.098;2022-07-17T14:29:34;25.80;26.20
43808;DHT22;29438;50.664;10.098;2022-07-17T14:32:00;25.70;25.90
43808;DHT22;29438;50.664;10.098;2022-07-17T14:34:25;25.50;26.50
43808;DHT22;29438;50.664;10.098;2022-07-17T14:36:51;25.50;26.40
43808;DHT22;29438;50.664;10.098;2022-07-17T14:39:17;25.70;27.40
43808;DHT22;29438;50.664;10.098;2022-07-17T14:41:43;26.00;26.40
43808;DHT22;29438;50.664;10.098;2022-07-17T14:44:10;25.70;26.50
43808;DHT22;29438;50.664;10.098;2022-07-17T14:46:36;25.90;27.20
43808;DHT22;29438;50.664;10.098;2022-07-17T14:49:02;26.10;26.40
43808;DHT22;29438;50.664;10.098;2022-07-17T14:51:27;26.10;27.70
43808;DHT22;29438;50.664;10.098;2022-07-17T14:53:53;26.00;25.50
43808;DHT22;29438;50.664;10.098;2022-07-17T14:56:19;25.80;26.30
43808;DHT22;29438;50.664;10.098;2022-07-17T14:58:44;25.50;26.10
43808;DHT22;29438;50.664;10.098;2022-07-17T15:01:10;25.70;26.50
43808;DHT22;29438;50.664;10.098;2022-07-17T15:03:36;25.50;26.60
43808;DHT22;29438;50.664;10.098;2022-07-17T15:06:01;25.50;25.60
43808;DHT22;29438;50.664;10.098;2022-07-17T15:08:27;25.30;26.60
43808;DHT22;29438;50.664;10.098;2022-07-17T15:10:52;25.30;26.40
43808;DHT22;29438;50.664;10.098;2022-07-17T15:13:18;25.20;27.10
43808;DHT22;29438;50.664;10.098;2022-07-17T15:15:44;25.40;26.90
43808;DHT22;29438;50.664;10.098;2022-07-17T15:18:09;25.50;27.20
43808;DHT22;29438;50.664;10.098;2022-07-17T15:20:35;25.60;26.40
43808;DHT22;29438;50.664;10.098;2022-07-17T15:23:02;25.40;26.90
43808;DHT22;29438;50.664;10.098;2022-07-17T15:25:27;25.10;27.00
43808;DHT22;29438;50.664;10.098;2022-07-17T15:27:53;25.20;27.30